createdAt,value
2022-11-01T00:02:11.247Z,66.86
2022-11-01T00:07:08.355Z,68.79
2022-11-01T00:12:05.932Z,69.50
2022-11-01T00:17:03.830Z,70.35
2022-11-01T00:22:01.758Z,70.29
2022-11-01T00:26:59.275Z,68.98
2022-11-01T00:31:56.262Z,68.14
2022-11-01T00:36:54.124Z,67.31
2022-11-01T00:41:54.407Z,66.19
2022-11-01T00:46:51.544Z,65.95
2022-11-01T00:51:48.498Z,65.48
2022-11-01T00:56:46.370Z,64.64
2022-11-01T01:01:44.670Z,64.17
2022-11-01T01:06:42.809Z,64.10
2022-11-01T01:11:39.864Z,63.92
2022-11-01T01:16:37.744Z,63.76
2022-11-01T01:21:34.865Z,63.39
2022-11-01T01:26:31.861Z,62.44
2022-11-01T01:31:29.148Z,61.71
2022-11-01T01:36:26.784Z,61.57
2022-11-01T01:41:41.958Z,61.54
2022-11-01T01:46:39.044Z,61.68
2022-11-01T01:51:36.802Z,61.56
2022-11-01T01:56:37.023Z,61.95
2022-11-01T02:01:37.381Z,62.11
2022-11-01T02:06:37.065Z,62.06
2022-11-01T02:11:34.597Z,63.35
2022-11-01T02:16:40.895Z,64.39
2022-11-01T02:21:55.547Z,64.40
2022-11-01T02:27:12.016Z,64.92
2022-11-01T02:32:20.485Z,64.93
2022-11-01T02:37:25.014Z,64.58
2022-11-01T02:42:27.522Z,64.98
2022-11-01T02:47:30.685Z,65.58
2022-11-01T02:52:32.206Z,65.39
2022-11-01T02:57:34.055Z,65.21
2022-11-01T03:02:41.311Z,65.13
2022-11-01T03:07:39.622Z,64.89
2022-11-01T03:12:46.976Z,64.36
2022-11-01T03:17:51.313Z,63.88
2022-11-01T03:22:53.882Z,63.46
2022-11-01T03:27:51.154Z,63.55
2022-11-01T03:32:54.971Z,63.76
2022-11-01T03:37:56.589Z,64.03
2022-11-01T03:42:57.935Z,64.48
2022-11-01T03:47:55.808Z,64.65
2022-11-01T03:52:53.593Z,64.44
2022-11-01T03:57:52.089Z,63.67
2022-11-01T04:02:49.205Z,63.35
2022-11-01T04:07:47.438Z,62.90
2022-11-01T04:12:46.025Z,62.54
2022-11-01T04:18:01.130Z,62.55
2022-11-01T04:23:03.003Z,61.99
2022-11-01T04:28:00.446Z,62.12
2022-11-01T04:33:00.399Z,61.78
2022-11-01T04:37:59.246Z,61.67
2022-11-01T04:42:56.807Z,61.36
2022-11-01T04:48:02.575Z,61.38
2022-11-01T04:53:01.159Z,61.59
2022-11-01T04:57:58.366Z,61.39
2022-11-01T05:03:01.790Z,61.85
2022-11-01T05:08:04.150Z,62.21
2022-11-01T05:13:02.522Z,62.82
2022-11-01T05:18:01.441Z,63.39
2022-11-01T05:22:59.930Z,64.31
2022-11-01T05:28:05.393Z,64.33
2022-11-01T05:33:05.251Z,63.88
2022-11-01T05:38:03.888Z,64.01
2022-11-01T05:43:02.332Z,64.73
2022-11-01T05:48:03.220Z,64.63
2022-11-01T05:53:12.722Z,64.62
2022-11-01T05:58:10.597Z,65.67
2022-11-01T06:03:08.096Z,66.40
2022-11-01T06:08:05.953Z,66.83
2022-11-01T06:13:03.307Z,66.85
2022-11-01T06:18:01.883Z,67.00
2022-11-01T06:22:59.538Z,66.16
2022-11-01T06:27:56.571Z,66.00
2022-11-01T06:32:59.918Z,65.09
2022-11-01T06:38:02.713Z,64.92
2022-11-01T06:43:01.525Z,65.13
2022-11-01T06:47:59.487Z,64.72
2022-11-01T06:53:00.436Z,64.51
2022-11-01T06:58:00.109Z,63.76
2022-11-01T07:03:02.638Z,63.05
2022-11-01T07:08:00.376Z,62.77
2022-11-01T07:12:59.409Z,62.30
2022-11-01T07:17:57.164Z,62.12
2022-11-01T07:22:59.932Z,62.23
2022-11-01T07:27:59.495Z,61.90
2022-11-01T07:32:57.996Z,61.26
2022-11-01T07:37:57.566Z,60.99
2022-11-01T07:42:57.645Z,59.70
2022-11-01T07:48:01.995Z,59.50
2022-11-01T07:53:00.893Z,58.80
2022-11-01T07:57:59.094Z,58.69
2022-11-01T08:03:03.932Z,57.26
2022-11-01T08:08:03.490Z,56.52
2022-11-01T08:13:02.461Z,55.40
2022-11-01T08:18:01.598Z,56.24
2022-11-01T08:23:00.131Z,56.30
2022-11-01T08:28:02.341Z,55.49
2022-11-01T08:33:03.094Z,54.62
2022-11-01T08:38:03.546Z,55.38
2022-11-01T08:43:01.376Z,55.39
2022-11-01T08:47:59.682Z,55.11
2022-11-01T08:52:57.566Z,54.89
2022-11-01T08:57:58.669Z,54.38
2022-11-01T09:02:56.103Z,54.11
2022-11-01T09:07:57.617Z,53.44
2022-11-01T09:12:54.731Z,53.08
2022-11-01T09:17:52.424Z,53.05
2022-11-01T09:22:51.318Z,52.82
2022-11-01T09:27:49.738Z,52.23
2022-11-01T09:32:47.781Z,52.09
2022-11-01T09:37:44.884Z,51.26
2022-11-01T09:42:44.147Z,51.12
2022-11-01T09:47:48.337Z,50.50
2022-11-01T09:52:45.562Z,50.07
2022-11-01T09:57:46.006Z,49.76
2022-11-01T10:03:19.533Z,49.46
2022-11-01T10:08:37.124Z,49.17
2022-11-01T10:13:44.532Z,49.37
2022-11-01T10:18:49.274Z,49.31
2022-11-01T10:23:51.211Z,48.79
2022-11-01T10:28:55.052Z,48.73
2022-11-01T10:34:00.928Z,48.56
2022-11-01T10:44:40.777Z,48.00
2022-11-01T10:50:04.789Z,47.69
2022-11-01T10:55:16.188Z,47.40
2022-11-01T11:00:17.649Z,47.39
2022-11-01T11:05:16.441Z,47.14
2022-11-01T11:10:24.049Z,45.64
2022-11-01T11:15:33.061Z,44.96
2022-11-01T11:20:34.314Z,42.54
2022-11-01T11:25:37.287Z,42.85
2022-11-01T11:30:37.927Z,41.82
2022-11-01T11:35:38.063Z,41.43
2022-11-01T11:40:45.149Z,41.36
2022-11-01T11:45:43.345Z,41.18
2022-11-01T11:50:42.142Z,41.02
2022-11-01T11:55:43.743Z,41.36
2022-11-01T12:00:52.149Z,40.44
2022-11-01T12:05:56.132Z,40.96
2022-11-01T12:10:58.585Z,40.38
2022-11-01T12:16:20.877Z,40.05
2022-11-01T12:21:33.634Z,39.78
2022-11-01T12:26:34.691Z,39.49
2022-11-01T12:31:36.143Z,39.89
2022-11-01T12:36:43.275Z,39.30
2022-11-01T12:41:46.906Z,39.10
2022-11-01T12:46:50.745Z,39.22
2022-11-01T12:51:52.487Z,39.10
2022-11-01T12:56:49.790Z,39.06
2022-11-01T13:02:00.361Z,39.11
2022-11-01T13:07:24.769Z,39.70
2022-11-01T13:12:30.912Z,39.80
2022-11-01T13:17:36.484Z,39.36
2022-11-01T13:22:41.162Z,39.87
2022-11-01T13:27:42.064Z,40.25
2022-11-01T13:32:46.725Z,40.82
2022-11-01T13:37:47.193Z,40.96
2022-11-01T13:42:51.837Z,41.02
2022-11-01T13:47:56.559Z,41.53
2022-11-01T13:52:59.010Z,41.80
2022-11-01T13:57:56.336Z,41.97
2022-11-01T14:02:56.637Z,42.30
2022-11-01T14:08:27.834Z,42.67
2022-11-01T14:13:34.170Z,42.63
2022-11-01T14:19:21.436Z,43.17
2022-11-01T14:24:25.276Z,43.53
2022-11-01T14:29:23.026Z,43.95
2022-11-01T14:34:31.312Z,44.64
2022-11-01T14:39:37.008Z,45.08
2022-11-01T14:44:38.715Z,45.65
2022-11-01T14:49:43.704Z,45.99
2022-11-01T14:54:44.148Z,46.12
2022-11-01T14:59:41.013Z,46.75
2022-11-01T15:04:41.854Z,47.29
2022-11-01T15:09:54.388Z,48.21
2022-11-01T15:14:54.003Z,48.79
2022-11-01T15:19:56.267Z,49.37
2022-11-01T15:24:57.805Z,49.58
2022-11-01T15:29:56.103Z,50.27
2022-11-01T15:34:55.365Z,50.48
2022-11-01T15:39:53.094Z,50.82
2022-11-01T15:44:53.957Z,51.43
2022-11-01T15:50:04.791Z,51.86
2022-11-01T15:55:11.148Z,51.83
2022-11-01T16:00:17.564Z,52.06
2022-11-01T16:05:19.865Z,52.37
2022-11-01T16:10:21.852Z,52.91
2022-11-01T16:15:22.960Z,53.20
2022-11-01T16:20:31.391Z,53.48
2022-11-01T16:25:35.536Z,53.88
2022-11-01T16:30:42.133Z,53.91
2022-11-01T16:35:40.880Z,54.23
2022-11-01T16:40:39.180Z,54.51
2022-11-01T16:45:37.593Z,55.00
2022-11-01T16:50:38.301Z,55.28
2022-11-01T16:55:39.624Z,55.55
2022-11-01T17:00:38.369Z,56.11
2022-11-01T17:05:35.962Z,56.46
2022-11-01T17:10:37.328Z,56.53
2022-11-01T17:15:39.594Z,56.42
2022-11-01T17:20:39.978Z,56.81
2022-11-01T17:25:46.192Z,57.29
2022-11-01T17:30:47.242Z,57.29
2022-11-01T17:35:47.910Z,57.67
2022-11-01T17:40:46.902Z,57.74
2022-11-01T17:45:44.277Z,57.92
2022-11-01T17:50:42.423Z,58.17
2022-11-01T17:55:40.430Z,58.11
2022-11-01T18:00:41.701Z,58.42
2022-11-01T18:05:38.728Z,58.22
2022-11-01T18:10:42.967Z,58.42
2022-11-01T18:16:08.370Z,58.58
2022-11-01T18:21:15.961Z,58.64
2022-11-01T18:26:19.888Z,58.89
2022-11-01T18:31:23.244Z,58.78
2022-11-01T18:36:24.460Z,59.10
2022-11-01T18:41:24.068Z,59.18
2022-11-01T18:46:26.378Z,59.36
2022-11-01T18:51:27.816Z,59.29
2022-11-01T18:56:26.047Z,59.47
2022-11-01T19:01:30.822Z,59.48
2022-11-01T19:06:33.337Z,59.49
2022-11-01T19:11:31.644Z,59.38
2022-11-01T19:16:29.593Z,59.60
2022-11-01T19:21:31.405Z,59.57
2022-11-01T19:26:33.636Z,59.82
2022-11-01T19:31:36.503Z,59.76
2022-11-01T19:41:44.660Z,60.08
2022-11-01T19:46:42.648Z,60.15
2022-11-01T19:51:41.799Z,60.26
2022-11-01T19:56:39.636Z,60.29
2022-11-01T20:01:40.256Z,60.39
2022-11-01T20:06:43.400Z,60.38
2022-11-01T20:11:40.825Z,60.76
2022-11-01T20:16:37.872Z,60.80
2022-11-01T20:21:34.914Z,60.68
2022-11-01T20:26:32.490Z,61.11
2022-11-01T20:31:29.983Z,60.71
2022-11-01T20:36:28.369Z,61.09
2022-11-01T20:41:25.870Z,61.11
2022-11-01T20:46:24.040Z,61.25
2022-11-01T20:51:21.145Z,61.28
2022-11-01T20:56:18.912Z,61.43
2022-11-01T21:01:18.389Z,61.38
2022-11-01T21:06:18.324Z,61.48
2022-11-01T21:11:42.979Z,61.44
2022-11-01T21:16:40.236Z,61.36
2022-11-01T21:21:45.344Z,61.43
2022-11-01T21:26:44.929Z,61.62
2022-11-01T21:31:43.104Z,61.72
2022-11-01T21:36:45.047Z,61.52
2022-11-01T21:41:46.748Z,61.84
2022-11-01T21:46:47.566Z,61.96
2022-11-01T21:51:45.483Z,61.56
2022-11-01T21:56:42.460Z,61.56
2022-11-01T22:01:41.424Z,61.55
2022-11-01T22:06:38.794Z,61.54
2022-11-01T22:11:36.968Z,61.53
2022-11-01T22:16:34.209Z,61.34
2022-11-01T22:21:31.825Z,61.46
2022-11-01T22:26:29.345Z,61.32
2022-11-01T22:31:27.022Z,61.40
2022-11-01T22:36:25.642Z,61.18
2022-11-01T22:41:29.983Z,61.27
2022-11-01T22:46:40.266Z,61.17
2022-11-01T22:51:43.084Z,61.15
2022-11-01T22:56:40.089Z,61.13
2022-11-01T23:01:38.000Z,60.92
2022-11-01T23:06:35.343Z,60.92
2022-11-01T23:11:50.693Z,60.84
2022-11-01T23:16:49.270Z,60.72
2022-11-01T23:21:46.125Z,60.83
2022-11-01T23:26:43.068Z,60.87
2022-11-01T23:31:40.254Z,61.02
2022-11-01T23:36:38.898Z,60.93
2022-11-01T23:41:39.327Z,60.81
2022-11-01T23:46:36.442Z,60.63
2022-11-01T23:51:33.306Z,60.55
2022-11-01T23:56:30.822Z,60.38
